createdAt,value
2018-04-01T00:02:25.864Z,6.83
2018-04-01T00:04:52.827Z,6.80
2018-04-01T00:07:19.819Z,7.03
2018-04-01T00:09:46.783Z,6.20
2018-04-01T00:12:13.749Z,6.90
2018-04-01T00:14:41.484Z,6.33
2018-04-01T00:17:08.455Z,6.10
2018-04-01T00:19:35.427Z,6.10
2018-04-01T00:22:02.390Z,5.77
2018-04-01T00:24:29.367Z,6.00
2018-04-01T00:26:56.321Z,6.10
2018-04-01T00:29:23.300Z,6.67
2018-04-01T00:31:51.022Z,7.00
2018-04-01T00:34:17.991Z,6.87
2018-04-01T00:36:44.956Z,7.07
2018-04-01T00:39:12.691Z,6.73
2018-04-01T00:41:39.642Z,7.00
2018-04-01T00:44:06.632Z,7.30
2018-04-01T00:46:33.599Z,6.50
2018-04-01T00:49:00.582Z,6.23
2018-04-01T00:51:27.536Z,6.40
2018-04-01T00:53:55.270Z,6.10
2018-04-01T00:56:22.296Z,6.60
2018-04-01T00:58:49.273Z,6.77
2018-04-01T01:01:16.230Z,6.77
2018-04-01T01:03:43.966Z,7.10
2018-04-01T01:06:10.932Z,6.50
2018-04-01T01:08:37.919Z,6.70
2018-04-01T01:11:04.892Z,5.90
2018-04-01T01:13:31.873Z,4.17
2018-04-01T01:15:59.618Z,4.50
2018-04-01T01:18:26.583Z,4.43
2018-04-01T01:20:53.566Z,5.00
2018-04-01T01:23:20.535Z,5.83
2018-04-01T01:25:47.513Z,6.30
2018-04-01T01:28:14.478Z,6.23
2018-04-01T01:30:42.220Z,6.70
2018-04-01T01:33:09.181Z,6.63
2018-04-01T01:35:36.148Z,6.90
2018-04-01T01:38:03.115Z,7.63
2018-04-01T01:40:30.097Z,6.73
2018-04-01T01:42:57.050Z,7.63
2018-04-01T01:45:24.790Z,7.47
2018-04-01T01:47:51.750Z,7.27
2018-04-01T01:50:18.723Z,7.00
2018-04-01T01:52:45.707Z,9.07
2018-04-01T01:55:12.661Z,7.03
2018-04-01T01:57:39.651Z,6.47
2018-04-01T02:00:07.373Z,6.27
2018-04-01T02:02:34.352Z,6.57
2018-04-01T02:05:01.332Z,7.13
2018-04-01T02:07:28.303Z,7.00
2018-04-01T02:09:55.280Z,7.30
2018-04-01T02:12:22.242Z,7.30
2018-04-01T02:14:49.971Z,7.73
2018-04-01T02:17:16.950Z,7.27
2018-04-01T02:19:43.905Z,7.07
2018-04-01T02:22:10.874Z,7.50
2018-04-01T02:24:37.847Z,7.47
2018-04-01T02:27:04.822Z,7.27
2018-04-01T02:29:32.563Z,7.60
2018-04-01T02:31:59.516Z,7.27
2018-04-01T02:34:26.479Z,6.83
2018-04-01T02:36:53.438Z,7.00
2018-04-01T02:39:20.416Z,6.40
2018-04-01T02:41:47.381Z,5.80
2018-04-01T02:44:14.350Z,5.73
2018-04-01T02:46:41.308Z,5.37
2018-04-01T02:49:08.289Z,5.50
2018-04-01T02:51:35.256Z,5.33
2018-04-01T02:54:02.226Z,7.10
2018-04-01T02:56:29.186Z,5.67
2018-04-01T02:58:56.164Z,4.90
2018-04-01T03:01:23.129Z,5.33
2018-04-01T03:03:50.094Z,5.43
2018-04-01T03:06:17.077Z,5.10
2018-04-01T03:08:44.798Z,4.60
2018-04-01T03:11:11.777Z,4.97
2018-04-01T03:13:38.744Z,4.93
2018-04-01T03:16:05.706Z,4.63
2018-04-01T03:18:32.670Z,4.30
2018-04-01T03:20:59.658Z,3.80
2018-04-01T03:23:27.392Z,3.67
2018-04-01T03:25:54.362Z,3.30
2018-04-01T03:28:21.343Z,3.10
2018-04-01T03:30:48.312Z,3.53
2018-04-01T03:33:15.282Z,2.97
2018-04-01T03:35:42.238Z,3.00
2018-04-01T03:38:09.961Z,2.67
2018-04-01T03:40:36.930Z,2.70
2018-04-01T03:43:03.995Z,2.60
2018-04-01T03:45:31.724Z,2.77
2018-04-01T03:47:58.687Z,2.77
2018-04-01T03:50:25.643Z,2.50
2018-04-01T03:52:52.650Z,2.47
2018-04-01T03:55:19.611Z,2.30
2018-04-01T03:57:46.586Z,2.50
2018-04-01T04:00:14.314Z,2.30
2018-04-01T04:02:41.286Z,2.40
2018-04-01T04:05:08.254Z,2.47
2018-04-01T04:07:35.233Z,2.60
2018-04-01T04:10:02.177Z,2.60
2018-04-01T04:12:29.152Z,2.40
2018-04-01T04:14:56.110Z,2.60
2018-04-01T04:17:23.098Z,2.50
2018-04-01T04:19:50.063Z,2.37
2018-04-01T04:22:17.044Z,2.40
2018-04-01T04:24:43.994Z,2.60
2018-04-01T04:27:11.727Z,2.60
2018-04-01T04:29:38.713Z,2.67
2018-04-01T04:32:05.670Z,2.70
2018-04-01T04:34:32.645Z,2.50
2018-04-01T04:36:59.594Z,2.40
2018-04-01T04:39:27.341Z,2.53
2018-04-01T04:41:54.296Z,2.70
2018-04-01T04:44:21.262Z,2.47
2018-04-01T04:46:48.221Z,2.93
2018-04-01T04:49:15.183Z,3.40
2018-04-01T04:51:42.910Z,3.10
2018-04-01T04:54:09.866Z,3.20
2018-04-01T04:56:36.848Z,3.07
2018-04-01T04:59:03.823Z,3.60
2018-04-01T05:01:30.786Z,3.50
2018-04-01T05:03:57.766Z,3.50
2018-04-01T05:06:24.730Z,3.70
2018-04-01T05:08:52.452Z,3.93
2018-04-01T05:11:19.433Z,3.80
2018-04-01T05:13:46.395Z,3.77
2018-04-01T05:16:13.366Z,4.13
2018-04-01T05:18:40.319Z,3.90
2018-04-01T05:21:07.283Z,4.30
2018-04-01T05:23:34.243Z,4.07
2018-04-01T05:26:01.208Z,3.97
2018-04-01T05:28:28.968Z,4.47
2018-04-01T05:30:56.703Z,4.17
2018-04-01T05:33:23.665Z,4.60
2018-04-01T05:35:50.638Z,4.10
2018-04-01T05:38:17.602Z,4.37
2018-04-01T05:40:44.566Z,5.33
2018-04-01T05:43:11.525Z,4.37
2018-04-01T05:45:38.502Z,4.27
2018-04-01T05:48:05.467Z,4.30
2018-04-01T05:50:32.430Z,4.67
2018-04-01T05:52:59.386Z,4.40
2018-04-01T05:58:00.570Z,4.77
2018-04-01T06:00:27.533Z,4.63
2018-04-01T06:02:54.513Z,4.93
2018-04-01T06:05:21.472Z,4.60
2018-04-01T06:07:48.447Z,4.87
2018-04-01T06:10:15.402Z,4.70
2018-04-01T06:12:42.371Z,5.20
2018-04-01T06:15:09.343Z,5.23
2018-04-01T06:17:36.314Z,5.43
2018-04-01T06:20:03.270Z,5.33
2018-04-01T06:22:30.245Z,5.30
2018-04-01T06:24:57.969Z,5.63
2018-04-01T06:27:24.947Z,5.47
2018-04-01T06:29:51.911Z,5.33
2018-04-01T06:32:18.895Z,5.53
2018-04-01T06:34:45.849Z,5.70
2018-04-01T06:37:12.826Z,5.73
2018-04-01T06:39:39.843Z,6.03
2018-04-01T06:42:07.587Z,6.17
2018-04-01T06:44:34.576Z,5.90
2018-04-01T06:47:01.553Z,5.93
2018-04-01T06:49:28.532Z,6.80
2018-04-01T06:51:55.499Z,6.63
2018-04-01T06:54:22.466Z,6.93
2018-04-01T06:56:49.428Z,15.50
2018-04-01T06:59:16.411Z,13.33
2018-04-01T07:01:43.373Z,11.97
2018-04-01T07:04:10.360Z,11.43
2018-04-01T07:06:37.324Z,14.57
2018-04-01T07:09:04.328Z,9.10
2018-04-01T07:11:31.278Z,7.30
2018-04-01T07:13:58.254Z,7.23
2018-04-01T07:16:25.212Z,7.80
2018-04-01T07:18:52.178Z,8.10
2018-04-01T07:21:19.153Z,8.60
2018-04-01T07:23:46.149Z,9.20
2018-04-01T07:26:13.131Z,8.80
2018-04-01T07:28:40.122Z,8.83
2018-04-01T07:31:07.106Z,9.40
2018-04-01T07:33:34.066Z,9.20
2018-04-01T07:36:01.045Z,8.80
2018-04-01T07:38:28.788Z,10.50
2018-04-01T07:40:56.556Z,8.87
2018-04-01T07:43:23.519Z,9.20
2018-04-01T07:45:50.494Z,9.37
2018-04-01T07:48:17.462Z,9.40
2018-04-01T07:50:44.440Z,9.30
2018-04-01T07:53:11.406Z,10.57
2018-04-01T07:55:38.379Z,9.60
2018-04-01T07:58:05.354Z,9.83
2018-04-01T08:00:32.331Z,11.00
2018-04-01T08:02:59.390Z,9.30
2018-04-01T08:05:27.193Z,10.20
2018-04-01T08:07:54.264Z,9.63
2018-04-01T08:10:21.315Z,9.63
2018-04-01T08:12:48.384Z,9.80
2018-04-01T08:15:15.502Z,9.17
2018-04-01T08:17:42.503Z,9.47
2018-04-01T08:20:10.389Z,9.33
2018-04-01T08:22:37.483Z,10.00
2018-04-01T08:25:04.584Z,8.97
2018-04-01T08:27:31.598Z,10.10
2018-04-01T08:29:58.679Z,9.23
2018-04-01T08:32:25.771Z,8.67
2018-04-01T08:34:52.774Z,8.90
2018-04-01T08:37:19.820Z,8.43
2018-04-01T08:39:46.953Z,9.97
2018-04-01T08:42:14.027Z,8.70
2018-04-01T08:44:41.058Z,8.57
2018-04-01T08:47:08.156Z,9.77
2018-04-01T08:49:35.142Z,9.07
2018-04-01T08:52:02.275Z,8.80
2018-04-01T08:54:29.368Z,9.20
2018-04-01T08:56:56.498Z,8.70
2018-04-01T08:59:23.719Z,9.03
2018-04-01T09:01:50.707Z,8.50
2018-04-01T09:04:17.716Z,8.53
2018-04-01T09:06:45.437Z,9.50
2018-04-01T09:09:12.568Z,8.13
2018-04-01T09:11:39.727Z,8.33
2018-04-01T09:14:06.814Z,8.20
2018-04-01T09:16:33.964Z,9.07
2018-04-01T09:19:01.022Z,8.27
2018-04-01T09:21:28.106Z,8.60
2018-04-01T09:23:55.062Z,8.00
2018-04-01T09:26:22.043Z,7.70
2018-04-01T09:28:49.021Z,7.57
2018-04-01T09:31:16.022Z,7.97
2018-04-01T09:33:42.962Z,7.90
2018-04-01T09:36:09.925Z,7.83
2018-04-01T09:38:37.702Z,7.97
2018-04-01T09:41:04.670Z,8.10
2018-04-01T09:43:31.651Z,8.20
2018-04-01T09:45:58.626Z,8.13
2018-04-01T09:48:25.599Z,8.03
2018-04-01T09:50:52.579Z,8.80
2018-04-01T09:53:19.561Z,10.00
2018-04-01T09:55:46.535Z,8.33
2018-04-01T09:58:13.498Z,8.30
2018-04-01T10:01:00.523Z,8.87
2018-04-01T10:03:27.974Z,8.77
2018-04-01T10:05:55.438Z,8.80
2018-04-01T10:08:22.972Z,8.30
2018-04-01T10:10:50.441Z,10.03
2018-04-01T10:13:17.902Z,9.67
2018-04-01T10:15:45.380Z,9.00
2018-04-01T10:18:12.906Z,9.77
2018-04-01T10:20:40.382Z,9.67
2018-04-01T10:23:07.935Z,4.73
2018-04-01T10:25:35.502Z,4.90
2018-04-01T10:28:02.958Z,5.10
2018-04-01T10:30:30.422Z,5.60
2018-04-01T10:32:57.869Z,5.10
2018-04-01T10:35:25.334Z,7.80
2018-04-01T10:37:53.017Z,7.13
2018-04-01T10:40:20.506Z,7.50
2018-04-01T10:42:48.046Z,7.73
2018-04-01T10:45:16.277Z,10.10
2018-04-01T10:47:43.786Z,5.30
2018-04-01T10:50:11.310Z,4.17
2018-04-01T10:52:38.766Z,5.37
2018-04-01T10:55:05.763Z,4.43
2018-04-01T10:57:32.726Z,4.73
2018-04-01T10:59:59.814Z,5.07
2018-04-01T11:02:26.903Z,4.67
2018-04-01T11:04:55.046Z,7.20
2018-04-01T11:07:22.006Z,5.57
2018-04-01T11:09:49.762Z,9.57
2018-04-01T11:12:17.741Z,9.53
2018-04-01T11:14:44.699Z,6.83
2018-04-01T11:17:12.482Z,7.77
2018-04-01T11:19:45.639Z,5.97
2018-04-01T11:22:12.612Z,6.27
2018-04-01T11:24:39.623Z,6.37
2018-04-01T11:27:06.668Z,6.70
2018-04-01T11:29:33.686Z,7.87
2018-04-01T11:32:00.671Z,7.00
2018-04-01T11:34:27.646Z,5.47
2018-04-01T11:36:54.645Z,6.50
2018-04-01T11:39:21.641Z,5.47
2018-04-01T11:41:48.626Z,7.53
2018-04-01T11:44:15.601Z,5.90
2018-04-01T11:46:42.567Z,8.87
2018-04-01T11:49:09.622Z,7.07
2018-04-01T11:51:36.668Z,7.00
2018-04-01T11:54:03.658Z,6.30
2018-04-01T11:56:30.642Z,6.17
2018-04-01T11:58:57.661Z,5.87
2018-04-01T12:01:24.690Z,5.40
2018-04-01T12:03:51.650Z,5.10
2018-04-01T12:06:18.615Z,5.47
2018-04-01T12:08:45.638Z,5.30
2018-04-01T12:11:12.673Z,7.40
2018-04-01T12:13:39.638Z,5.10
2018-04-01T12:16:06.695Z,4.80
2018-04-01T12:18:33.699Z,5.73
2018-04-01T12:21:00.745Z,4.73
2018-04-01T12:23:27.737Z,1.90
2018-04-01T12:25:54.754Z,1.87
2018-04-01T12:28:21.732Z,1.70
2018-04-01T12:30:48.703Z,1.80
2018-04-01T12:33:15.667Z,2.23
2018-04-01T12:35:42.668Z,2.20
2018-04-01T12:38:09.657Z,2.40
2018-04-01T12:40:36.691Z,2.27
2018-04-01T12:43:03.671Z,2.30
2018-04-01T12:45:30.662Z,2.67
2018-04-01T12:47:57.800Z,2.13
2018-04-01T12:50:25.206Z,2.33
2018-04-01T12:52:52.960Z,2.40
2018-04-01T12:55:19.986Z,2.80
2018-04-01T12:57:47.015Z,2.93
2018-04-01T13:00:13.972Z,3.40
2018-04-01T13:02:41.027Z,3.33
2018-04-01T13:05:07.993Z,3.20
2018-04-01T13:07:34.945Z,3.70
2018-04-01T13:10:01.941Z,3.60
2018-04-01T13:12:29.695Z,3.90
2018-04-01T13:14:57.734Z,3.77
2018-04-01T13:17:24.834Z,3.90
2018-04-01T13:19:52.018Z,4.30
2018-04-01T13:22:19.009Z,4.30
2018-04-01T13:24:46.101Z,3.90
2018-04-01T13:27:13.082Z,4.43
2018-04-01T13:29:40.042Z,4.40
2018-04-01T13:32:07.823Z,4.73
2018-04-01T13:34:35.594Z,4.50
2018-04-01T13:37:02.629Z,2.83
2018-04-01T13:39:29.662Z,3.03
2018-04-01T13:41:56.655Z,3.50
2018-04-01T13:44:23.678Z,3.33
2018-04-01T13:46:50.699Z,3.73
2018-04-01T13:49:18.434Z,3.67
2018-04-01T13:51:45.423Z,3.13
2018-04-01T13:54:13.170Z,3.33
2018-04-01T13:56:40.136Z,3.67
2018-04-01T13:59:07.898Z,3.53
2018-04-01T14:01:35.671Z,4.00
2018-04-01T14:04:02.647Z,3.87
2018-04-01T14:06:29.621Z,17.57
2018-04-01T14:08:56.600Z,11.23
2018-04-01T14:11:23.571Z,4.20
2018-04-01T14:13:51.543Z,5.93
2018-04-01T14:16:18.493Z,4.00
2018-04-01T14:18:45.534Z,4.87
2018-04-01T14:21:12.582Z,4.40
2018-04-01T14:23:39.554Z,3.90
2018-04-01T14:26:06.546Z,3.57
2018-04-01T14:28:33.589Z,3.40
2018-04-01T14:31:01.353Z,3.70
2018-04-01T14:33:29.126Z,3.40
2018-04-01T14:35:56.921Z,3.50
2018-04-01T14:38:23.915Z,4.00
2018-04-01T14:40:51.640Z,4.30
2018-04-01T14:43:18.645Z,5.23
2018-04-01T14:45:45.605Z,4.47
2018-04-01T14:48:12.583Z,5.03
2018-04-01T14:50:39.632Z,4.90
2018-04-01T14:53:06.649Z,4.60
2018-04-01T14:55:33.627Z,4.57
2018-04-01T14:58:00.599Z,4.73
2018-04-01T15:00:27.665Z,4.87
2018-04-01T15:02:54.719Z,4.90
2018-04-01T15:05:21.794Z,5.53
2018-04-01T15:07:48.767Z,5.13
2018-04-01T15:10:16.637Z,5.10
2018-04-01T15:12:43.642Z,5.60
2018-04-01T15:15:10.670Z,5.10
2018-04-01T15:17:37.720Z,4.70
2018-04-01T15:20:04.698Z,4.80
2018-04-01T15:22:31.714Z,41.40
2018-04-01T15:24:58.745Z,18.60
2018-04-01T15:27:26.520Z,7.30
2018-04-01T15:29:53.568Z,6.20
2018-04-01T15:32:20.639Z,11.37
2018-04-01T15:34:48.523Z,9.20
2018-04-01T15:37:15.610Z,5.80
2018-04-01T15:39:42.627Z,9.73
2018-04-01T15:42:09.701Z,5.67
2018-04-01T15:44:36.777Z,5.80
2018-04-01T15:47:03.790Z,5.20
2018-04-01T15:49:31.549Z,4.90
2018-04-01T15:51:58.537Z,5.93
2018-04-01T15:54:25.550Z,6.07
2018-04-01T15:56:53.568Z,6.10
2018-04-01T15:59:20.675Z,6.50
2018-04-01T16:01:47.754Z,6.70
2018-04-01T16:04:14.905Z,6.40
2018-04-01T16:06:41.998Z,6.67
2018-04-01T16:09:09.107Z,7.83
2018-04-01T16:11:36.360Z,7.50
2018-04-01T16:14:03.434Z,6.43
2018-04-01T16:16:30.461Z,6.33
2018-04-01T16:18:57.456Z,6.93
2018-04-01T16:21:24.466Z,6.30
2018-04-01T16:23:51.486Z,6.03
2018-04-01T16:26:18.525Z,7.03
2018-04-01T16:28:45.551Z,7.73
2018-04-01T16:31:12.554Z,7.13
2018-04-01T16:33:39.535Z,6.97
2018-04-01T16:36:06.535Z,6.73
2018-04-01T16:38:33.537Z,6.23
2018-04-01T16:41:00.552Z,6.27
2018-04-01T16:43:27.528Z,7.30
2018-04-01T16:45:54.521Z,9.37
2018-04-01T16:48:21.524Z,13.70
2018-04-01T16:50:48.525Z,7.47
2018-04-01T16:53:15.522Z,7.47
2018-04-01T16:55:42.589Z,7.80
2018-04-01T16:58:09.605Z,6.20
2018-04-01T17:00:37.349Z,6.10
2018-04-01T17:03:04.407Z,5.40
2018-04-01T17:05:31.406Z,5.03
2018-04-01T17:07:58.544Z,4.80
2018-04-01T17:10:26.733Z,4.40
2018-04-01T17:12:53.790Z,4.13
2018-04-01T17:15:20.775Z,4.60
2018-04-01T17:17:47.758Z,5.63
2018-04-01T17:20:14.726Z,5.93
2018-04-01T17:22:41.718Z,6.80
2018-04-01T17:25:09.483Z,7.00
2018-04-01T17:27:37.244Z,7.13
2018-04-01T17:30:04.991Z,7.87
2018-04-01T17:32:32.726Z,7.50
2018-04-01T17:34:59.743Z,12.83
2018-04-01T17:37:26.717Z,8.43
2018-04-01T17:39:53.737Z,7.60
2018-04-01T17:42:21.616Z,7.27
2018-04-01T17:44:48.590Z,6.97
2018-04-01T17:47:15.621Z,6.87
2018-04-01T17:49:42.598Z,6.13
2018-04-01T17:52:09.575Z,6.00
2018-04-01T17:54:36.583Z,6.23
2018-04-01T17:57:03.618Z,6.03
2018-04-01T17:59:30.593Z,5.90
2018-04-01T18:01:57.622Z,6.03
2018-04-01T18:04:24.585Z,5.80
2018-04-01T18:06:51.564Z,5.23
2018-04-01T18:09:18.535Z,5.47
2018-04-01T18:11:45.528Z,5.60
2018-04-01T18:14:12.548Z,5.47
2018-04-01T18:16:39.515Z,5.70
2018-04-01T18:19:06.739Z,5.20
2018-04-01T18:21:33.711Z,5.37
2018-04-01T18:24:00.690Z,5.60
2018-04-01T18:26:27.729Z,6.10
2018-04-01T18:28:54.678Z,5.90
2018-04-01T18:31:21.683Z,5.93
2018-04-01T18:33:48.695Z,6.63
2018-04-01T18:36:15.674Z,6.20
2018-04-01T18:38:42.682Z,5.90
2018-04-01T18:41:09.834Z,5.60
2018-04-01T18:43:36.810Z,6.20
2018-04-01T18:46:03.795Z,5.93
2018-04-01T18:48:30.806Z,11.90
2018-04-01T18:50:57.805Z,6.63
2018-04-01T18:53:25.838Z,6.17
2018-04-01T18:55:52.967Z,5.93
2018-04-01T18:58:19.977Z,6.30
2018-04-01T19:00:46.954Z,6.20
2018-04-01T19:03:14.004Z,6.37
2018-04-01T19:05:40.996Z,6.40
2018-04-01T19:08:07.984Z,6.80
2018-04-01T19:10:34.998Z,6.70
2018-04-01T19:13:02.008Z,6.70
2018-04-01T19:15:29.778Z,6.67
2018-04-01T19:17:57.276Z,7.30
2018-04-01T19:20:24.736Z,7.90
2018-04-01T19:22:52.226Z,7.80
2018-04-01T19:25:19.692Z,7.83
2018-04-01T19:27:47.178Z,8.70
2018-04-01T19:30:14.693Z,12.63
2018-04-01T19:32:42.179Z,9.10
2018-04-01T19:35:10.435Z,9.50
2018-04-01T19:37:37.912Z,9.80
2018-04-01T19:40:05.417Z,10.30
2018-04-01T19:42:32.910Z,9.97
2018-04-01T19:45:00.379Z,10.73
2018-04-01T19:47:28.631Z,10.50
2018-04-01T19:49:56.107Z,11.07
2018-04-01T19:52:23.594Z,11.63
2018-04-01T19:54:51.093Z,11.20
2018-04-01T19:57:18.607Z,10.57
2018-04-01T19:59:46.851Z,11.23
2018-04-01T20:02:14.348Z,10.93
2018-04-01T20:04:41.807Z,11.73
2018-04-01T20:07:09.301Z,12.90
2018-04-01T20:09:36.801Z,12.27
2018-04-01T20:12:05.095Z,11.10
2018-04-01T20:14:32.621Z,10.90
2018-04-01T20:17:00.098Z,10.30
2018-04-01T20:19:28.366Z,10.60
2018-04-01T20:24:29.379Z,13.10
2018-04-01T20:26:56.845Z,9.80
2018-04-01T20:29:25.086Z,9.80
2018-04-01T20:31:52.564Z,9.37
2018-04-01T20:34:20.122Z,9.20
2018-04-01T20:36:47.570Z,9.70
2018-04-01T20:41:49.032Z,9.30
2018-04-01T20:44:16.511Z,9.53
2018-04-01T20:46:43.974Z,8.67
2018-04-01T20:49:12.332Z,9.67
2018-04-01T20:51:39.804Z,9.10
2018-04-01T20:54:07.286Z,8.77
2018-04-01T20:56:34.771Z,7.87
2018-04-01T20:59:03.009Z,7.87
2018-04-01T21:01:30.489Z,7.33
2018-04-01T21:03:58.726Z,6.83
2018-04-01T21:06:26.221Z,7.03
2018-04-01T21:08:53.718Z,6.77
2018-04-01T21:11:21.307Z,7.27
2018-04-01T21:13:48.818Z,6.77
2018-04-01T21:16:16.291Z,7.30
2018-04-01T21:18:43.750Z,7.13
2018-04-01T21:21:11.239Z,6.97
2018-04-01T21:23:38.725Z,7.23
2018-04-01T21:26:06.974Z,7.13
2018-04-01T21:28:34.474Z,6.67
2018-04-01T21:31:02.746Z,7.40
2018-04-01T21:33:30.353Z,7.30
2018-04-01T21:35:57.840Z,7.60
2018-04-01T21:38:25.315Z,7.73
2018-04-01T21:40:52.798Z,8.37
2018-04-01T21:43:20.312Z,8.60
2018-04-01T21:45:47.788Z,8.43
2018-04-01T21:48:15.278Z,8.80
2018-04-01T21:50:42.790Z,8.97
2018-04-01T21:53:10.272Z,9.00
2018-04-01T21:55:38.523Z,8.90
2018-04-01T21:58:06.006Z,8.80
2018-04-01T22:00:33.491Z,9.63
2018-04-01T22:03:00.958Z,9.87
2018-04-01T22:05:28.437Z,9.27
2018-04-01T22:07:55.923Z,8.57
2018-04-01T22:10:24.140Z,9.37
2018-04-01T22:12:51.602Z,9.23
2018-04-01T22:15:19.050Z,9.23
2018-04-01T22:17:46.505Z,9.27
2018-04-01T22:20:13.967Z,9.80
2018-04-01T22:22:53.170Z,10.00
2018-04-01T22:25:20.658Z,10.30
2018-04-01T22:27:48.121Z,9.40
2018-04-01T22:30:15.579Z,9.87
2018-04-01T22:32:43.037Z,9.50
2018-04-01T22:35:10.494Z,9.97
2018-04-01T22:37:37.953Z,10.20
2018-04-01T22:40:05.398Z,9.50
2018-04-01T22:42:32.862Z,9.47
2018-04-01T22:45:00.324Z,9.77
2018-04-01T22:47:27.787Z,9.80
2018-04-01T22:49:55.247Z,10.23
2018-04-01T22:52:22.715Z,9.57
2018-04-01T22:54:50.175Z,10.77
2018-04-01T22:57:17.713Z,8.90
2018-04-01T22:59:45.166Z,8.80
2018-04-01T23:02:12.658Z,8.70
2018-04-01T23:04:40.119Z,9.40
2018-04-01T23:07:07.736Z,8.80
2018-04-01T23:09:35.228Z,9.20
2018-04-01T23:12:02.762Z,9.13
2018-04-01T23:14:30.335Z,10.07
2018-04-01T23:16:57.833Z,9.07
2018-04-01T23:19:25.333Z,10.03
2018-04-01T23:21:52.785Z,10.30
2018-04-01T23:24:20.254Z,9.77
2018-04-01T23:26:47.727Z,10.40
2018-04-01T23:29:15.176Z,10.83
2018-04-01T23:31:42.650Z,10.20
2018-04-01T23:34:10.117Z,11.27
2018-04-01T23:36:38.331Z,11.03
2018-04-01T23:39:05.795Z,10.00
2018-04-01T23:41:33.270Z,11.33
2018-04-01T23:44:00.740Z,11.57
2018-04-01T23:46:28.181Z,11.73
2018-04-01T23:48:55.675Z,10.93
2018-04-01T23:51:23.122Z,12.47
2018-04-01T23:53:50.637Z,11.60
2018-04-01T23:56:18.082Z,12.57
2018-04-01T23:58:45.539Z,12.90
